sensor_id;sensor_type;location;lat;lon;timestamp;P1;durP1;ratioP1;P2;durP2;ratioP2
45694;SDS011;31408;45.468;9.124;2023-04-03T00:00:29;10.27;;;4.43;;
45694;SDS011;31408;45.468;9.124;2023-04-03T00:02:54;12.57;;;4.82;;
45694;SDS011;31408;45.468;9.124;2023-04-03T00:05:20;8.32;;;3.90;;
45694;SDS011;31408;45.468;9.124;2023-04-03T00:07:45;7.45;;;3.97;;
45694;SDS011;31408;45.468;9.124;2023-04-03T00:10:10;11.23;;;5.28;;
45694;SDS011;31408;45.468;9.124;2023-04-03T00:12:36;8.68;;;3.63;;
45694;SDS011;31408;45.468;9.124;2023-04-03T00:15:01;8.90;;;3.65;;
45694;SDS011;31408;45.468;9.124;2023-04-03T00:17:26;7.40;;;3.55;;
45694;SDS011;31408;45.468;9.124;2023-04-03T00:19:52;8.68;;;4.03;;
45694;SDS011;31408;45.468;9.124;2023-04-03T00:22:17;10.10;;;3.90;;
45694;SDS011;31408;45.468;9.124;2023-04-03T00:24:42;8.63;;;4.40;;
45694;SDS011;31408;45.468;9.124;2023-04-03T00:27:08;9.38;;;3.55;;
45694;SDS011;31408;45.468;9.124;2023-04-03T00:29:33;8.30;;;3.45;;
45694;SDS011;31408;45.468;9.124;2023-04-03T00:31:58;10.57;;;4.45;;
45694;SDS011;31408;45.468;9.124;2023-04-03T00:34:24;9.38;;;4.15;;
45694;SDS011;31408;45.468;9.124;2023-04-03T00:36:49;11.80;;;3.80;;
45694;SDS011;31408;45.468;9.124;2023-04-03T00:39:16;8.35;;;3.72;;
45694;SDS011;31408;45.468;9.124;2023-04-03T00:41:41;7.25;;;3.40;;
45694;SDS011;31408;45.468;9.124;2023-04-03T00:45:21;5.22;;;2.72;;
45694;SDS011;31408;45.468;9.124;2023-04-03T00:47:06;14.95;;;4.72;;
45694;SDS011;31408;45.468;9.124;2023-04-03T00:49:32;9.10;;;3.58;;
45694;SDS011;31408;45.468;9.124;2023-04-03T00:51:57;6.93;;;3.78;;
45694;SDS011;31408;45.468;9.124;2023-04-03T00:54:23;7.35;;;3.67;;
45694;SDS011;31408;45.468;9.124;2023-04-03T00:56:50;8.82;;;3.40;;
45694;SDS011;31408;45.468;9.124;2023-04-03T00:59:17;10.05;;;4.68;;
45694;SDS011;31408;45.468;9.124;2023-04-03T01:01:43;6.35;;;3.95;;
45694;SDS011;31408;45.468;9.124;2023-04-03T01:04:26;12.52;;;3.60;;
45694;SDS011;31408;45.468;9.124;2023-04-03T01:06:53;8.25;;;3.85;;
45694;SDS011;31408;45.468;9.124;2023-04-03T01:09:19;7.80;;;3.55;;
45694;SDS011;31408;45.468;9.124;2023-04-03T01:11:44;9.93;;;3.80;;
45694;SDS011;31408;45.468;9.124;2023-04-03T01:14:10;6.28;;;4.15;;
45694;SDS011;31408;45.468;9.124;2023-04-03T01:16:35;12.32;;;4.00;;
45694;SDS011;31408;45.468;9.124;2023-04-03T01:19:00;10.73;;;4.38;;
45694;SDS011;31408;45.468;9.124;2023-04-03T01:21:49;6.90;;;3.97;;
45694;SDS011;31408;45.468;9.124;2023-04-03T01:26:46;13.30;;;5.10;;
45694;SDS011;31408;45.468;9.124;2023-04-03T01:29:11;10.45;;;4.50;;
45694;SDS011;31408;45.468;9.124;2023-04-03T01:34:20;11.38;;;4.50;;
45694;SDS011;31408;45.468;9.124;2023-04-03T01:36:45;10.77;;;5.15;;
45694;SDS011;31408;45.468;9.124;2023-04-03T01:39:11;11.60;;;4.97;;
45694;SDS011;31408;45.468;9.124;2023-04-03T01:41:37;9.95;;;4.88;;
45694;SDS011;31408;45.468;9.124;2023-04-03T01:44:17;12.20;;;4.90;;
45694;SDS011;31408;45.468;9.124;2023-04-03T01:46:43;12.88;;;5.95;;
45694;SDS011;31408;45.468;9.124;2023-04-03T01:49:09;12.43;;;5.28;;
45694;SDS011;31408;45.468;9.124;2023-04-03T01:51:34;9.70;;;4.78;;
45694;SDS011;31408;45.468;9.124;2023-04-03T01:54:00;7.45;;;4.15;;
45694;SDS011;31408;45.468;9.124;2023-04-03T01:56:26;11.38;;;4.55;;
45694;SDS011;31408;45.468;9.124;2023-04-03T01:58:52;14.73;;;5.40;;
45694;SDS011;31408;45.468;9.124;2023-04-03T02:01:17;15.80;;;5.18;;
45694;SDS011;31408;45.468;9.124;2023-04-03T02:03:43;9.35;;;4.80;;
45694;SDS011;31408;45.468;9.124;2023-04-03T02:06:08;7.60;;;4.15;;
45694;SDS011;31408;45.468;9.124;2023-04-03T02:08:33;12.57;;;5.00;;
45694;SDS011;31408;45.468;9.124;2023-04-03T02:10:59;8.40;;;4.95;;
45694;SDS011;31408;45.468;9.124;2023-04-03T02:13:24;9.35;;;4.93;;
45694;SDS011;31408;45.468;9.124;2023-04-03T02:15:50;12.32;;;5.78;;
45694;SDS011;31408;45.468;9.124;2023-04-03T02:18:15;10.93;;;4.50;;
45694;SDS011;31408;45.468;9.124;2023-04-03T02:20:41;12.07;;;4.90;;
45694;SDS011;31408;45.468;9.124;2023-04-03T02:23:06;9.02;;;5.50;;
45694;SDS011;31408;45.468;9.124;2023-04-03T02:25:32;11.82;;;5.28;;
45694;SDS011;31408;45.468;9.124;2023-04-03T02:27:57;13.23;;;5.68;;
45694;SDS011;31408;45.468;9.124;2023-04-03T02:30:23;10.38;;;5.32;;
45694;SDS011;31408;45.468;9.124;2023-04-03T02:32:48;9.05;;;5.00;;
45694;SDS011;31408;45.468;9.124;2023-04-03T02:35:13;10.75;;;4.85;;
45694;SDS011;31408;45.468;9.124;2023-04-03T02:37:39;12.90;;;5.53;;
45694;SDS011;31408;45.468;9.124;2023-04-03T02:40:06;12.52;;;4.97;;
45694;SDS011;31408;45.468;9.124;2023-04-03T02:42:31;11.13;;;5.38;;
45694;SDS011;31408;45.468;9.124;2023-04-03T02:44:57;12.15;;;5.93;;
45694;SDS011;31408;45.468;9.124;2023-04-03T02:47:22;18.70;;;6.38;;
45694;SDS011;31408;45.468;9.124;2023-04-03T02:49:48;12.43;;;5.20;;
45694;SDS011;31408;45.468;9.124;2023-04-03T02:52:13;16.27;;;5.70;;
45694;SDS011;31408;45.468;9.124;2023-04-03T02:54:39;13.88;;;5.32;;
45694;SDS011;31408;45.468;9.124;2023-04-03T02:57:07;9.00;;;4.75;;
45694;SDS011;31408;45.468;9.124;2023-04-03T02:59:36;9.10;;;5.68;;
45694;SDS011;31408;45.468;9.124;2023-04-03T03:02:02;10.32;;;5.95;;
45694;SDS011;31408;45.468;9.124;2023-04-03T03:04:27;14.07;;;5.35;;
45694;SDS011;31408;45.468;9.124;2023-04-03T03:06:53;13.02;;;6.40;;
45694;SDS011;31408;45.468;9.124;2023-04-03T03:09:18;9.32;;;5.68;;
45694;SDS011;31408;45.468;9.124;2023-04-03T03:11:43;14.00;;;6.70;;
45694;SDS011;31408;45.468;9.124;2023-04-03T03:14:09;12.75;;;5.63;;
45694;SDS011;31408;45.468;9.124;2023-04-03T03:16:34;15.20;;;5.53;;
45694;SDS011;31408;45.468;9.124;2023-04-03T03:19:00;13.23;;;6.45;;
45694;SDS011;31408;45.468;9.124;2023-04-03T03:21:25;12.35;;;5.50;;
45694;SDS011;31408;45.468;9.124;2023-04-03T03:23:51;8.00;;;4.45;;
45694;SDS011;31408;45.468;9.124;2023-04-03T03:26:16;10.35;;;5.07;;
45694;SDS011;31408;45.468;9.124;2023-04-03T03:28:41;14.82;;;6.15;;
45694;SDS011;31408;45.468;9.124;2023-04-03T03:31:08;9.18;;;4.95;;
45694;SDS011;31408;45.468;9.124;2023-04-03T03:33:35;11.90;;;5.85;;
45694;SDS011;31408;45.468;9.124;2023-04-03T03:36:00;9.63;;;5.97;;
45694;SDS011;31408;45.468;9.124;2023-04-03T03:38:26;14.55;;;6.35;;
45694;SDS011;31408;45.468;9.124;2023-04-03T03:40:52;15.68;;;6.15;;
45694;SDS011;31408;45.468;9.124;2023-04-03T03:43:19;15.82;;;6.70;;
45694;SDS011;31408;45.468;9.124;2023-04-03T03:45:49;13.20;;;5.75;;
45694;SDS011;31408;45.468;9.124;2023-04-03T03:48:15;17.67;;;6.20;;
45694;SDS011;31408;45.468;9.124;2023-04-03T03:50:40;13.68;;;6.45;;
45694;SDS011;31408;45.468;9.124;2023-04-03T03:53:05;11.95;;;5.28;;
45694;SDS011;31408;45.468;9.124;2023-04-03T03:55:31;14.07;;;6.68;;
45694;SDS011;31408;45.468;9.124;2023-04-03T03:57:57;12.55;;;6.22;;
45694;SDS011;31408;45.468;9.124;2023-04-03T04:00:23;16.48;;;6.50;;
45694;SDS011;31408;45.468;9.124;2023-04-03T04:02:53;6.97;;;4.80;;
45694;SDS011;31408;45.468;9.124;2023-04-03T04:05:20;11.27;;;5.82;;
45694;SDS011;31408;45.468;9.124;2023-04-03T04:07:46;14.75;;;7.65;;
45694;SDS011;31408;45.468;9.124;2023-04-03T04:10:12;11.82;;;6.00;;
45694;SDS011;31408;45.468;9.124;2023-04-03T04:12:39;12.38;;;6.15;;
45694;SDS011;31408;45.468;9.124;2023-04-03T04:15:05;15.05;;;6.13;;
45694;SDS011;31408;45.468;9.124;2023-04-03T04:17:30;12.48;;;5.97;;
45694;SDS011;31408;45.468;9.124;2023-04-03T04:19:57;12.73;;;5.80;;
45694;SDS011;31408;45.468;9.124;2023-04-03T04:22:22;11.70;;;5.90;;
45694;SDS011;31408;45.468;9.124;2023-04-03T04:24:48;14.20;;;6.88;;
45694;SDS011;31408;45.468;9.124;2023-04-03T04:27:13;18.10;;;6.80;;
45694;SDS011;31408;45.468;9.124;2023-04-03T04:29:38;12.82;;;6.32;;
45694;SDS011;31408;45.468;9.124;2023-04-03T04:32:06;14.60;;;6.53;;
45694;SDS011;31408;45.468;9.124;2023-04-03T04:34:31;13.93;;;5.80;;
45694;SDS011;31408;45.468;9.124;2023-04-03T04:36:58;11.40;;;5.90;;
45694;SDS011;31408;45.468;9.124;2023-04-03T04:39:25;12.20;;;6.10;;
45694;SDS011;31408;45.468;9.124;2023-04-03T04:41:51;13.60;;;6.25;;
45694;SDS011;31408;45.468;9.124;2023-04-03T04:44:17;12.27;;;5.53;;
45694;SDS011;31408;45.468;9.124;2023-04-03T04:46:43;13.82;;;6.32;;
45694;SDS011;31408;45.468;9.124;2023-04-03T04:49:08;13.05;;;6.15;;
45694;SDS011;31408;45.468;9.124;2023-04-03T04:51:37;12.43;;;6.68;;
45694;SDS011;31408;45.468;9.124;2023-04-03T04:54:02;11.95;;;6.45;;
45694;SDS011;31408;45.468;9.124;2023-04-03T04:56:28;10.82;;;5.28;;
45694;SDS011;31408;45.468;9.124;2023-04-03T04:58:55;8.43;;;5.47;;
45694;SDS011;31408;45.468;9.124;2023-04-03T05:01:21;14.18;;;6.15;;
45694;SDS011;31408;45.468;9.124;2023-04-03T05:03:54;14.73;;;6.43;;
45694;SDS011;31408;45.468;9.124;2023-04-03T05:06:20;11.00;;;5.88;;
45694;SDS011;31408;45.468;9.124;2023-04-03T05:08:46;9.85;;;5.55;;
45694;SDS011;31408;45.468;9.124;2023-04-03T05:11:12;12.52;;;6.93;;
45694;SDS011;31408;45.468;9.124;2023-04-03T05:13:38;15.77;;;6.30;;
45694;SDS011;31408;45.468;9.124;2023-04-03T05:16:04;11.20;;;5.65;;
45694;SDS011;31408;45.468;9.124;2023-04-03T05:18:30;13.30;;;6.10;;
45694;SDS011;31408;45.468;9.124;2023-04-03T05:20:59;13.35;;;6.78;;
45694;SDS011;31408;45.468;9.124;2023-04-03T05:23:25;14.15;;;6.15;;
45694;SDS011;31408;45.468;9.124;2023-04-03T05:25:50;15.25;;;7.03;;
45694;SDS011;31408;45.468;9.124;2023-04-03T05:28:17;15.75;;;6.93;;
45694;SDS011;31408;45.468;9.124;2023-04-03T05:30:42;12.55;;;5.93;;
45694;SDS011;31408;45.468;9.124;2023-04-03T05:33:08;14.55;;;6.78;;
45694;SDS011;31408;45.468;9.124;2023-04-03T05:35:43;10.85;;;6.00;;
45694;SDS011;31408;45.468;9.124;2023-04-03T05:38:13;13.90;;;6.68;;
45694;SDS011;31408;45.468;9.124;2023-04-03T05:40:38;16.10;;;7.15;;
45694;SDS011;31408;45.468;9.124;2023-04-03T05:43:05;16.85;;;8.30;;
45694;SDS011;31408;45.468;9.124;2023-04-03T05:45:33;12.52;;;6.50;;
45694;SDS011;31408;45.468;9.124;2023-04-03T05:47:59;15.90;;;6.57;;
45694;SDS011;31408;45.468;9.124;2023-04-03T05:50:25;16.25;;;6.70;;
45694;SDS011;31408;45.468;9.124;2023-04-03T05:52:52;15.75;;;7.57;;
45694;SDS011;31408;45.468;9.124;2023-04-03T05:55:20;18.67;;;6.80;;
45694;SDS011;31408;45.468;9.124;2023-04-03T05:57:46;15.32;;;7.05;;
45694;SDS011;31408;45.468;9.124;2023-04-03T06:00:16;11.75;;;7.00;;
45694;SDS011;31408;45.468;9.124;2023-04-03T06:02:49;11.32;;;6.25;;
45694;SDS011;31408;45.468;9.124;2023-04-03T06:05:19;11.27;;;6.60;;
45694;SDS011;31408;45.468;9.124;2023-04-03T06:07:45;13.65;;;7.07;;
45694;SDS011;31408;45.468;9.124;2023-04-03T06:10:15;18.95;;;7.22;;
45694;SDS011;31408;45.468;9.124;2023-04-03T06:12:41;16.63;;;7.50;;
45694;SDS011;31408;45.468;9.124;2023-04-03T06:15:07;13.10;;;6.60;;
45694;SDS011;31408;45.468;9.124;2023-04-03T06:17:33;12.88;;;7.38;;
45694;SDS011;31408;45.468;9.124;2023-04-03T06:19:58;13.73;;;7.22;;
45694;SDS011;31408;45.468;9.124;2023-04-03T06:22:24;21.90;;;8.98;;
45694;SDS011;31408;45.468;9.124;2023-04-03T06:24:50;12.18;;;6.82;;
45694;SDS011;31408;45.468;9.124;2023-04-03T06:27:16;12.40;;;6.13;;
45694;SDS011;31408;45.468;9.124;2023-04-03T06:29:41;14.82;;;6.32;;
45694;SDS011;31408;45.468;9.124;2023-04-03T06:32:07;16.13;;;7.55;;
45694;SDS011;31408;45.468;9.124;2023-04-03T06:34:32;17.73;;;7.40;;
45694;SDS011;31408;45.468;9.124;2023-04-03T06:36:58;18.15;;;7.53;;
45694;SDS011;31408;45.468;9.124;2023-04-03T06:39:23;13.82;;;6.47;;
45694;SDS011;31408;45.468;9.124;2023-04-03T06:41:49;15.48;;;7.53;;
45694;SDS011;31408;45.468;9.124;2023-04-03T06:44:15;14.00;;;6.80;;
45694;SDS011;31408;45.468;9.124;2023-04-03T06:46:41;10.38;;;5.63;;
45694;SDS011;31408;45.468;9.124;2023-04-03T06:49:07;16.55;;;6.00;;
45694;SDS011;31408;45.468;9.124;2023-04-03T06:51:32;10.32;;;5.70;;
45694;SDS011;31408;45.468;9.124;2023-04-03T06:53:58;10.15;;;5.20;;
45694;SDS011;31408;45.468;9.124;2023-04-03T06:56:24;14.70;;;5.32;;
45694;SDS011;31408;45.468;9.124;2023-04-03T06:58:50;8.85;;;4.93;;
45694;SDS011;31408;45.468;9.124;2023-04-03T07:01:17;9.60;;;4.57;;
45694;SDS011;31408;45.468;9.124;2023-04-03T07:03:44;9.63;;;3.97;;
45694;SDS011;31408;45.468;9.124;2023-04-03T07:06:11;10.82;;;4.90;;
45694;SDS011;31408;45.468;9.124;2023-04-03T07:08:36;9.45;;;4.43;;
45694;SDS011;31408;45.468;9.124;2023-04-03T07:11:02;9.90;;;4.97;;
45694;SDS011;31408;45.468;9.124;2023-04-03T07:13:28;9.30;;;5.00;;
45694;SDS011;31408;45.468;9.124;2023-04-03T07:15:53;10.73;;;4.60;;
45694;SDS011;31408;45.468;9.124;2023-04-03T07:18:19;6.78;;;4.25;;
45694;SDS011;31408;45.468;9.124;2023-04-03T07:20:44;12.25;;;4.75;;
45694;SDS011;31408;45.468;9.124;2023-04-03T07:23:10;7.95;;;4.00;;
45694;SDS011;31408;45.468;9.124;2023-04-03T07:25:36;9.32;;;4.55;;
45694;SDS011;31408;45.468;9.124;2023-04-03T07:28:01;7.35;;;4.38;;
45694;SDS011;31408;45.468;9.124;2023-04-03T07:30:27;11.65;;;4.20;;
45694;SDS011;31408;45.468;9.124;2023-04-03T07:32:52;13.35;;;4.35;;
45694;SDS011;31408;45.468;9.124;2023-04-03T07:35:18;8.15;;;4.20;;
45694;SDS011;31408;45.468;9.124;2023-04-03T07:37:43;7.95;;;4.80;;
45694;SDS011;31408;45.468;9.124;2023-04-03T07:40:08;7.50;;;3.92;;
45694;SDS011;31408;45.468;9.124;2023-04-03T07:42:34;6.18;;;3.83;;
45694;SDS011;31408;45.468;9.124;2023-04-03T07:45:00;6.75;;;3.72;;
45694;SDS011;31408;45.468;9.124;2023-04-03T07:47:25;9.85;;;4.65;;
45694;SDS011;31408;45.468;9.124;2023-04-03T07:49:51;9.10;;;3.55;;
45694;SDS011;31408;45.468;9.124;2023-04-03T07:52:16;9.50;;;4.55;;
45694;SDS011;31408;45.468;9.124;2023-04-03T07:54:41;6.68;;;3.92;;
45694;SDS011;31408;45.468;9.124;2023-04-03T07:57:07;9.50;;;4.10;;
45694;SDS011;31408;45.468;9.124;2023-04-03T07:59:32;9.27;;;4.75;;
45694;SDS011;31408;45.468;9.124;2023-04-03T08:01:58;11.20;;;4.95;;
45694;SDS011;31408;45.468;9.124;2023-04-03T08:04:23;12.38;;;5.25;;
45694;SDS011;31408;45.468;9.124;2023-04-03T08:06:50;8.90;;;4.32;;
45694;SDS011;31408;45.468;9.124;2023-04-03T08:09:16;8.50;;;3.80;;
45694;SDS011;31408;45.468;9.124;2023-04-03T08:11:41;13.10;;;5.05;;
45694;SDS011;31408;45.468;9.124;2023-04-03T08:14:07;12.27;;;4.90;;
45694;SDS011;31408;45.468;9.124;2023-04-03T08:16:32;8.80;;;4.32;;
45694;SDS011;31408;45.468;9.124;2023-04-03T08:18:58;6.72;;;4.22;;
45694;SDS011;31408;45.468;9.124;2023-04-03T08:21:23;10.38;;;3.75;;
45694;SDS011;31408;45.468;9.124;2023-04-03T08:23:49;9.35;;;4.53;;
45694;SDS011;31408;45.468;9.124;2023-04-03T08:26:16;10.60;;;4.13;;
45694;SDS011;31408;45.468;9.124;2023-04-03T08:28:41;8.55;;;4.10;;
45694;SDS011;31408;45.468;9.124;2023-04-03T08:31:09;8.57;;;4.40;;
45694;SDS011;31408;45.468;9.124;2023-04-03T08:33:36;6.63;;;3.50;;
45694;SDS011;31408;45.468;9.124;2023-04-03T08:36:02;6.47;;;3.72;;
45694;SDS011;31408;45.468;9.124;2023-04-03T08:38:28;9.20;;;3.78;;
45694;SDS011;31408;45.468;9.124;2023-04-03T08:43:39;7.10;;;3.72;;
45694;SDS011;31408;45.468;9.124;2023-04-03T08:46:09;6.75;;;4.05;;
45694;SDS011;31408;45.468;9.124;2023-04-03T08:48:39;8.52;;;3.75;;
45694;SDS011;31408;45.468;9.124;2023-04-03T08:51:12;7.53;;;3.88;;
45694;SDS011;31408;45.468;9.124;2023-04-03T08:53:41;12.93;;;4.80;;
45694;SDS011;31408;45.468;9.124;2023-04-03T08:56:09;7.07;;;3.70;;
45694;SDS011;31408;45.468;9.124;2023-04-03T08:58:41;7.55;;;3.78;;
45694;SDS011;31408;45.468;9.124;2023-04-03T09:01:41;5.95;;;3.80;;
45694;SDS011;31408;45.468;9.124;2023-04-03T09:04:05;7.80;;;3.72;;
45694;SDS011;31408;45.468;9.124;2023-04-03T09:06:34;5.15;;;3.88;;
45694;SDS011;31408;45.468;9.124;2023-04-03T09:09:14;9.50;;;4.43;;
45694;SDS011;31408;45.468;9.124;2023-04-03T09:11:44;5.63;;;3.80;;
45694;SDS011;31408;45.468;9.124;2023-04-03T09:16:58;11.13;;;4.25;;
45694;SDS011;31408;45.468;9.124;2023-04-03T09:21:56;7.45;;;4.15;;
45694;SDS011;31408;45.468;9.124;2023-04-03T09:24:22;9.98;;;4.30;;
45694;SDS011;31408;45.468;9.124;2023-04-03T09:26:52;8.52;;;4.45;;
45694;SDS011;31408;45.468;9.124;2023-04-03T09:29:20;8.90;;;4.05;;
45694;SDS011;31408;45.468;9.124;2023-04-03T09:31:46;7.47;;;3.53;;
45694;SDS011;31408;45.468;9.124;2023-04-03T09:39:12;7.57;;;3.95;;
45694;SDS011;31408;45.468;9.124;2023-04-03T09:41:37;8.27;;;3.70;;
45694;SDS011;31408;45.468;9.124;2023-04-03T09:44:04;8.10;;;4.15;;
45694;SDS011;31408;45.468;9.124;2023-04-03T09:46:42;9.25;;;4.55;;
45694;SDS011;31408;45.468;9.124;2023-04-03T09:49:08;12.95;;;4.63;;
45694;SDS011;31408;45.468;9.124;2023-04-03T09:51:36;10.35;;;4.03;;
45694;SDS011;31408;45.468;9.124;2023-04-03T09:54:01;10.75;;;4.03;;
45694;SDS011;31408;45.468;9.124;2023-04-03T09:56:50;8.93;;;4.80;;
45694;SDS011;31408;45.468;9.124;2023-04-03T09:59:15;8.00;;;4.25;;
45694;SDS011;31408;45.468;9.124;2023-04-03T10:01:42;5.65;;;3.55;;
45694;SDS011;31408;45.468;9.124;2023-04-03T10:04:09;10.45;;;5.47;;
45694;SDS011;31408;45.468;9.124;2023-04-03T10:06:44;5.00;;;3.20;;
45694;SDS011;31408;45.468;9.124;2023-04-03T10:14:31;17.13;;;8.07;;
45694;SDS011;31408;45.468;9.124;2023-04-03T10:17:02;6.47;;;4.10;;
45694;SDS011;31408;45.468;9.124;2023-04-03T10:24:44;5.18;;;3.05;;
45694;SDS011;31408;45.468;9.124;2023-04-03T10:27:13;4.43;;;3.05;;
45694;SDS011;31408;45.468;9.124;2023-04-03T10:29:54;5.32;;;3.10;;
45694;SDS011;31408;45.468;9.124;2023-04-03T10:34:45;4.20;;;2.20;;
45694;SDS011;31408;45.468;9.124;2023-04-03T10:37:54;5.50;;;2.75;;
45694;SDS011;31408;45.468;9.124;2023-04-03T10:40:04;5.22;;;2.60;;
45694;SDS011;31408;45.468;9.124;2023-04-03T10:45:24;6.15;;;3.10;;
45694;SDS011;31408;45.468;9.124;2023-04-03T10:50:38;8.95;;;3.35;;
45694;SDS011;31408;45.468;9.124;2023-04-03T10:58:34;6.88;;;3.58;;
45694;SDS011;31408;45.468;9.124;2023-04-03T11:01:18;8.55;;;3.33;;
45694;SDS011;31408;45.468;9.124;2023-04-03T11:03:46;3.03;;;2.47;;
45694;SDS011;31408;45.468;9.124;2023-04-03T11:06:13;4.75;;;3.20;;
45694;SDS011;31408;45.468;9.124;2023-04-03T11:09:03;3.63;;;2.47;;
45694;SDS011;31408;45.468;9.124;2023-04-03T11:11:36;3.65;;;2.50;;
45694;SDS011;31408;45.468;9.124;2023-04-03T11:16:29;6.18;;;2.55;;
45694;SDS011;31408;45.468;9.124;2023-04-03T11:18:59;5.05;;;2.95;;
45694;SDS011;31408;45.468;9.124;2023-04-03T11:21:28;9.43;;;2.58;;
45694;SDS011;31408;45.468;9.124;2023-04-03T11:23:55;3.92;;;2.50;;
45694;SDS011;31408;45.468;9.124;2023-04-03T11:26:22;3.70;;;2.70;;
45694;SDS011;31408;45.468;9.124;2023-04-03T11:28:52;3.50;;;2.60;;
45694;SDS011;31408;45.468;9.124;2023-04-03T11:36:26;5.22;;;3.35;;
45694;SDS011;31408;45.468;9.124;2023-04-03T11:38:54;9.52;;;3.55;;
45694;SDS011;31408;45.468;9.124;2023-04-03T11:41:30;4.50;;;2.72;;
45694;SDS011;31408;45.468;9.124;2023-04-03T11:46:22;6.97;;;3.00;;
45694;SDS011;31408;45.468;9.124;2023-04-03T11:48:48;4.18;;;2.55;;
45694;SDS011;31408;45.468;9.124;2023-04-03T11:53:46;4.47;;;2.75;;
45694;SDS011;31408;45.468;9.124;2023-04-03T11:56:32;5.78;;;3.10;;
45694;SDS011;31408;45.468;9.124;2023-04-03T12:01:45;5.20;;;3.17;;
45694;SDS011;31408;45.468;9.124;2023-04-03T12:04:11;4.80;;;2.50;;
45694;SDS011;31408;45.468;9.124;2023-04-03T12:09:10;5.18;;;2.80;;
45694;SDS011;31408;45.468;9.124;2023-04-03T12:11:46;5.25;;;2.78;;
45694;SDS011;31408;45.468;9.124;2023-04-03T12:14:15;4.80;;;2.40;;
45694;SDS011;31408;45.468;9.124;2023-04-03T12:16:43;7.57;;;2.88;;
45694;SDS011;31408;45.468;9.124;2023-04-03T12:24:29;5.32;;;2.63;;
45694;SDS011;31408;45.468;9.124;2023-04-03T12:29:43;7.32;;;2.60;;
45694;SDS011;31408;45.468;9.124;2023-04-03T12:32:22;3.53;;;2.38;;
45694;SDS011;31408;45.468;9.124;2023-04-03T12:37:44;4.88;;;1.90;;
45694;SDS011;31408;45.468;9.124;2023-04-03T12:45:47;3.08;;;1.98;;
45694;SDS011;31408;45.468;9.124;2023-04-03T12:50:39;2.80;;;1.95;;
45694;SDS011;31408;45.468;9.124;2023-04-03T12:53:06;4.05;;;1.63;;
45694;SDS011;31408;45.468;9.124;2023-04-03T12:55:32;2.25;;;1.70;;
45694;SDS011;31408;45.468;9.124;2023-04-03T12:57:57;3.75;;;1.83;;
45694;SDS011;31408;45.468;9.124;2023-04-03T13:00:38;2.45;;;1.73;;
45694;SDS011;31408;45.468;9.124;2023-04-03T13:03:04;3.00;;;1.83;;
45694;SDS011;31408;45.468;9.124;2023-04-03T13:05:31;2.75;;;2.15;;
45694;SDS011;31408;45.468;9.124;2023-04-03T13:08:01;4.88;;;1.92;;
45694;SDS011;31408;45.468;9.124;2023-04-03T13:10:28;4.00;;;2.20;;
45694;SDS011;31408;45.468;9.124;2023-04-03T13:12:57;2.92;;;1.75;;
45694;SDS011;31408;45.468;9.124;2023-04-03T13:15:27;2.13;;;1.75;;
45694;SDS011;31408;45.468;9.124;2023-04-03T13:17:53;10.43;;;2.10;;
45694;SDS011;31408;45.468;9.124;2023-04-03T13:22:47;3.45;;;2.20;;
45694;SDS011;31408;45.468;9.124;2023-04-03T13:25:13;3.55;;;1.88;;
45694;SDS011;31408;45.468;9.124;2023-04-03T13:27:40;2.80;;;1.83;;
45694;SDS011;31408;45.468;9.124;2023-04-03T13:30:53;2.40;;;1.52;;
45694;SDS011;31408;45.468;9.124;2023-04-03T13:32:54;2.30;;;2.03;;
45694;SDS011;31408;45.468;9.124;2023-04-03T13:37:55;1.85;;;1.63;;
45694;SDS011;31408;45.468;9.124;2023-04-03T13:40:21;3.75;;;1.80;;
45694;SDS011;31408;45.468;9.124;2023-04-03T13:42:57;5.60;;;2.05;;
45694;SDS011;31408;45.468;9.124;2023-04-03T13:45:24;3.75;;;1.98;;
45694;SDS011;31408;45.468;9.124;2023-04-03T13:47:52;2.65;;;1.65;;
45694;SDS011;31408;45.468;9.124;2023-04-03T13:50:21;2.65;;;1.83;;
45694;SDS011;31408;45.468;9.124;2023-04-03T14:00:20;2.33;;;1.90;;
45694;SDS011;31408;45.468;9.124;2023-04-03T14:02:46;2.05;;;1.85;;
45694;SDS011;31408;45.468;9.124;2023-04-03T14:05:12;2.60;;;1.80;;
45694;SDS011;31408;45.468;9.124;2023-04-03T14:07:37;5.43;;;1.80;;
45694;SDS011;31408;45.468;9.124;2023-04-03T14:10:03;3.22;;;1.60;;
45694;SDS011;31408;45.468;9.124;2023-04-03T14:12:35;2.08;;;1.70;;
45694;SDS011;31408;45.468;9.124;2023-04-03T14:15:03;1.55;;;1.40;;
45694;SDS011;31408;45.468;9.124;2023-04-03T14:17:29;2.17;;;1.63;;
45694;SDS011;31408;45.468;9.124;2023-04-03T14:19:55;4.55;;;2.10;;
45694;SDS011;31408;45.468;9.124;2023-04-03T14:22:29;1.80;;;1.70;;
45694;SDS011;31408;45.468;9.124;2023-04-03T14:24:55;5.57;;;2.08;;
45694;SDS011;31408;45.468;9.124;2023-04-03T14:29:47;2.00;;;1.75;;
45694;SDS011;31408;45.468;9.124;2023-04-03T14:32:13;3.65;;;1.88;;
45694;SDS011;31408;45.468;9.124;2023-04-03T14:34:39;2.30;;;1.98;;
45694;SDS011;31408;45.468;9.124;2023-04-03T14:37:05;4.72;;;1.67;;
45694;SDS011;31408;45.468;9.124;2023-04-03T14:39:34;2.28;;;1.95;;
45694;SDS011;31408;45.468;9.124;2023-04-03T14:41:59;3.35;;;1.52;;
45694;SDS011;31408;45.468;9.124;2023-04-03T14:44:25;3.22;;;1.88;;
45694;SDS011;31408;45.468;9.124;2023-04-03T14:46:51;5.35;;;1.42;;
45694;SDS011;31408;45.468;9.124;2023-04-03T14:49:21;2.15;;;1.70;;
45694;SDS011;31408;45.468;9.124;2023-04-03T14:51:47;2.17;;;1.55;;
45694;SDS011;31408;45.468;9.124;2023-04-03T14:54:17;2.03;;;1.70;;
45694;SDS011;31408;45.468;9.124;2023-04-03T14:56:43;3.15;;;1.90;;
45694;SDS011;31408;45.468;9.124;2023-04-03T14:59:10;2.08;;;1.58;;
45694;SDS011;31408;45.468;9.124;2023-04-03T15:01:36;1.95;;;1.75;;
45694;SDS011;31408;45.468;9.124;2023-04-03T15:04:01;4.28;;;2.22;;
45694;SDS011;31408;45.468;9.124;2023-04-03T15:06:27;3.83;;;1.70;;
45694;SDS011;31408;45.468;9.124;2023-04-03T15:08:52;11.70;;;1.92;;
45694;SDS011;31408;45.468;9.124;2023-04-03T15:11:17;1.60;;;1.50;;
45694;SDS011;31408;45.468;9.124;2023-04-03T15:13:43;1.73;;;1.60;;
45694;SDS011;31408;45.468;9.124;2023-04-03T15:16:16;2.15;;;1.90;;
45694;SDS011;31408;45.468;9.124;2023-04-03T15:18:41;3.13;;;2.00;;
45694;SDS011;31408;45.468;9.124;2023-04-03T15:21:07;3.65;;;1.75;;
45694;SDS011;31408;45.468;9.124;2023-04-03T15:23:32;2.28;;;1.50;;
45694;SDS011;31408;45.468;9.124;2023-04-03T15:25:58;4.55;;;2.00;;
45694;SDS011;31408;45.468;9.124;2023-04-03T15:28:33;5.45;;;1.70;;
45694;SDS011;31408;45.468;9.124;2023-04-03T15:30:59;4.32;;;1.90;;
45694;SDS011;31408;45.468;9.124;2023-04-03T15:33:25;3.45;;;2.20;;
45694;SDS011;31408;45.468;9.124;2023-04-03T15:35:50;3.15;;;2.30;;
45694;SDS011;31408;45.468;9.124;2023-04-03T15:38:15;2.92;;;1.75;;
45694;SDS011;31408;45.468;9.124;2023-04-03T15:40:41;9.05;;;2.42;;
45694;SDS011;31408;45.468;9.124;2023-04-03T15:43:07;5.43;;;2.10;;
45694;SDS011;31408;45.468;9.124;2023-04-03T15:45:33;2.90;;;2.38;;
45694;SDS011;31408;45.468;9.124;2023-04-03T15:47:59;5.43;;;2.30;;
45694;SDS011;31408;45.468;9.124;2023-04-03T15:50:25;7.32;;;2.25;;
45694;SDS011;31408;45.468;9.124;2023-04-03T15:52:51;5.05;;;2.25;;
45694;SDS011;31408;45.468;9.124;2023-04-03T15:55:23;3.33;;;2.33;;
45694;SDS011;31408;45.468;9.124;2023-04-03T15:57:48;5.57;;;2.53;;
45694;SDS011;31408;45.468;9.124;2023-04-03T16:00:19;2.83;;;1.48;;
45694;SDS011;31408;45.468;9.124;2023-04-03T16:02:45;4.68;;;2.97;;
45694;SDS011;31408;45.468;9.124;2023-04-03T16:05:11;3.58;;;2.35;;
45694;SDS011;31408;45.468;9.124;2023-04-03T16:07:38;3.28;;;1.75;;
45694;SDS011;31408;45.468;9.124;2023-04-03T16:10:04;4.18;;;2.10;;
45694;SDS011;31408;45.468;9.124;2023-04-03T16:12:29;7.15;;;2.22;;
45694;SDS011;31408;45.468;9.124;2023-04-03T16:14:55;11.55;;;2.55;;
45694;SDS011;31408;45.468;9.124;2023-04-03T16:17:20;2.40;;;1.98;;